• Join FlightAware (Why Join?)
  • Login
  • US Flag 
11:28PM EDT


 

Airport Tracker/Info


-or-


 

Live Flight TrackerFlight Track Log ✈ AAL2360 ✈ 03-Jun-2013 ✈ KDFW - KORD

Flight Track Log - Related Links

Times and Time Zones

All times are in EDT time to prevent confusion due to time zone crossing. See the AAL2360 flight status page for this flight to view local times or setup timezone preferences in your user account.

Time Position Orientation Groundspeed Altitude Reporting Facility
EDT Latitude Longitude Course Direction KTS MPH feet Rate Location/Type
03:36PM 32.8833 -97.0333 357° North 190 219 1,000  Level Dallas / Fort Worth TRACON
03:38PM 32.8545 -96.8000 North  Level FlightAware Approximate
03:38PM 32.7833 -96.9833 157° South 251 289 5,100  Level Dallas / Fort Worth TRACON
03:38PM 32.8167 -96.9333 52° Northeast 247 284 7,500 2,100 Climbing Dallas / Fort Worth TRACON
03:39PM 32.9743 -96.8000 North  Level FlightAware Approximate
03:40PM 33.0941 -96.8019 357° North  Level FlightAware Approximate
03:41PM 33.2137 -96.8105 357° North  Level FlightAware Approximate
03:41PM 33.0119 -96.8908 10° North 319 367 12,100  Level Fort Worth Center
03:42PM 33.1100 -96.8778 North 340 391 14,700 2,400 Climbing Fort Worth Center
03:43PM 33.2206 -96.8597 North 377 434 17,000 2,160 Climbing Fort Worth Center
03:44PM 33.3206 -96.8442 North 399 459 19,100 1,920 Climbing Fort Worth Center
03:45PM 33.4478 -96.8233 North 409 471 20,900 1,740 Climbing Fort Worth Center
03:46PM 33.5456 -96.7631 27° Northeast 418 481 22,600 1,680 Climbing Fort Worth Center
03:47PM 33.6703 -96.6822 28° Northeast 443 510 24,300 1,680 Climbing Fort Worth Center
03:48PM 33.7847 -96.6089 28° Northeast 449 517 26,000 1,620 Climbing Fort Worth Center
03:49PM 33.9011 -96.5375 27° Northeast 454 522 27,600 1,500 Climbing Fort Worth Center
03:50PM 34.0153 -96.4589 30° Northeast 459 528 29,000 660 Climbing Fort Worth Center
03:51PM 34.1128 -96.3900 30° Northeast 459 528 29,000  Level Fort Worth Center
03:52PM 34.2350 -96.2881 35° Northeast 459 528 29,000  Level Fort Worth Center
03:53PM 34.3469 -96.1986 33° Northeast 470 541 29,000  Level Fort Worth Center
03:54PM 34.4544 -96.1064 35° Northeast 475 547 29,000  Level Fort Worth Center
03:55PM 34.5642 -96.0189 33° Northeast 475 547 29,000  Level Fort Worth Center
03:56PM 34.6736 -95.9289 34° Northeast 475 547 29,000  Level Fort Worth Center
03:57PM 34.7831 -95.8358 35° Northeast 475 547 29,000  Level Fort Worth Center
03:58PM 34.8719 -95.7608 35° Northeast 475 547 29,000  Level Fort Worth Center
04:00PM 35.0778 -95.5686 37° Northeast 476 548 29,000  Level Memphis Center
04:01PM 35.1822 -95.4686 38° Northeast 470 541 29,000  Level Memphis Center
04:02PM 35.2883 -95.3708 37° Northeast 475 547 29,000  Level Memphis Center
04:03PM 35.3922 -95.2725 38° Northeast 475 547 29,000  Level Memphis Center
04:04PM 35.4964 -95.1717 38° Northeast 475 547 29,000  Level Memphis Center
04:05PM 35.6003 -95.0703 38° Northeast 475 547 29,000  Level Memphis Center
04:06PM 35.7283 -94.9475 38° Northeast 482 555 29,000  Level Kansas City Center
04:07PM 35.8144 -94.8675 37° Northeast 480 552 29,000  Level Memphis Center
04:08PM 35.9181 -94.7656 39° Northeast 480 552 29,000  Level Memphis Center
04:09PM 36.0239 -94.6633 38° Northeast 480 552 29,000  Level Memphis Center
04:10PM 36.1294 -94.5586 39° Northeast 480 552 29,000  Level Memphis Center
04:10PM 36.1703 -94.5178 39° Northeast 487 560 29,000  Level Kansas City Center
04:11PM 36.2769 -94.4133 38° Northeast 489 563 29,000  Level Kansas City Center
04:12PM 36.3450 -94.3481 38° Northeast 480 552 29,000  Level Memphis Center
04:12PM 36.3831 -94.3089 40° Northeast 489 563 29,000  Level Kansas City Center
04:13PM 36.4889 -94.2050 38° Northeast 487 560 29,000  Level Kansas City Center
04:14PM 36.5956 -94.1003 38° Northeast 487 560 29,000  Level Kansas City Center
04:15PM 36.7233 -93.9725 39° Northeast 490 564 29,000  Level Kansas City Center
04:16PM 36.8303 -93.8656 39° Northeast 492 566 29,000  Level Kansas City Center
04:17PM 36.9325 -93.7622 39° Northeast 489 563 29,000  Level Kansas City Center
04:18PM 37.0386 -93.6547 39° Northeast 488 562 29,000  Level Kansas City Center
04:19PM 37.1442 -93.5492 39° Northeast 485 558 29,000  Level Kansas City Center
04:20PM 37.2489 -93.4428 39° Northeast 484 557 29,000  Level Kansas City Center
04:21PM 37.3742 -93.3142 39° Northeast 483 556 29,000  Level Kansas City Center
04:22PM 37.4831 -93.2158 36° Northeast 481 554 29,000  Level Kansas City Center
04:23PM 37.5914 -93.1178 36° Northeast 477 549 29,000  Level Kansas City Center
04:24PM 37.6981 -93.0178 37° Northeast 476 548 29,000  Level Kansas City Center
04:25PM 37.8050 -92.9178 36° Northeast 476 548 29,000  Level Kansas City Center
04:26PM 37.9128 -92.8181 36° Northeast 476 548 29,000  Level Kansas City Center
04:28PM 38.0286 -92.7089 37° Northeast 472 543 29,000  Level Kansas City Center
04:29PM 38.1353 -92.6103 36° Northeast 474 545 29,000  Level Kansas City Center
04:30PM 38.2547 -92.4978 36° Northeast 467 537 29,000  Level Kansas City Center
04:31PM 38.3592 -92.3972 37° Northeast 466 536 29,000  Level Kansas City Center
04:32PM 38.4639 -92.2983 36° Northeast 465 535 29,000  Level Kansas City Center
04:33PM 38.5686 -92.1975 37° Northeast 466 536 29,000  Level Kansas City Center
04:34PM 38.6742 -92.0950 37° Northeast 471 542 29,000  Level Kansas City Center
04:35PM 38.7789 -91.9944 37° Northeast 469 540 29,000  Level Kansas City Center
04:36PM 38.8811 -91.8944 37° Northeast 464 534 29,000  Level Kansas City Center
04:37PM 38.9869 -91.7933 37° Northeast 469 540 29,000  Level Kansas City Center
04:38PM 39.0908 -91.6925 37° Northeast 463 533 29,000  Level Kansas City Center
04:39PM 39.2142 -91.5719 37° Northeast 463 533 29,000  Level Kansas City Center
04:40PM 39.3178 -91.4697 37° Northeast 466 536 29,000  Level Kansas City Center
04:41PM 39.4217 -91.3681 37° Northeast 468 539 29,000  Level Kansas City Center
04:42PM 39.5228 -91.2675 37° Northeast 463 533 29,000  Level Kansas City Center
04:43PM 39.6244 -91.1656 38° Northeast 461 531 29,000  Level Kansas City Center
04:44PM 39.7264 -91.0642 37° Northeast 461 531 29,000  Level Kansas City Center
04:45PM 39.8328 -90.9592 37° Northeast 459 528 29,000  Level Kansas City Center
04:46PM 39.9356 -90.8553 38° Northeast 465 535 29,000  Level Kansas City Center
04:47PM 40.0561 -90.7325 38° Northeast 460 529 29,000  Level Kansas City Center
04:48PM 40.1572 -90.6289 38° Northeast 460 529 29,000  Level Kansas City Center
04:49PM 40.2583 -90.5278 37° Northeast 459 528 29,000  Level Kansas City Center
04:50PM 40.3586 -90.4247 38° Northeast 457 526 29,000  Level Kansas City Center
04:51PM 40.4194 -90.3619 38° Northeast 460 529 29,000  Level Chicago Center
04:52PM 40.5217 -90.2564 38° Northeast 464 534 29,000  Level Chicago Center
04:53PM 40.6197 -90.1497 40° Northeast 457 526 29,000  Level Chicago Center
04:54PM 40.7453 -90.0275 36° Northeast 465 535 29,000 -300 Level Chicago Center
04:55PM 40.8461 -89.9239 38° Northeast 461 531 28,400 -1,020 Descending Chicago Center
04:56PM 40.9433 -89.8192 39° Northeast 453 521 27,000 -1,560 Descending Chicago Center
04:57PM 41.0489 -89.7069 39° Northeast 448 516 25,200 -1,500 Descending Chicago Center
04:58PM 41.1444 -89.6067 38° Northeast 439 505 24,000 -1,560 Descending Chicago Center
04:59PM 41.2097 -89.4686 58° Northeast 442 509 22,000 -2,100 Descending Chicago Center
05:00PM 41.2664 -89.3283 62° Northeast 433 498 19,700 -2,280 Descending Chicago Center
05:01PM 41.3231 -89.1819 63° Northeast 411 473 17,300 -2,340 Descending Chicago Center
05:02PM 41.3756 -89.0539 61° Northeast 397 457 14,900 -2,160 Descending Chicago Center
05:03PM 41.4242 -88.9281 63° Northeast 385 443 12,800 -1,800 Descending Chicago Center
05:04PM 41.4728 -88.8089 61° Northeast 371 427 11,300 -900 Descending Chicago Center
05:05PM 41.5289 -88.6656 62° Northeast 366 421 11,000 -180 Descending Chicago Center
05:06PM 41.5708 -88.5611 62° Northeast 323 372 11,000 -300 Level Chicago Center
05:07PM 41.6117 -88.4639 61° Northeast 303 349 10,400 -1,020 Descending Chicago Center
05:08PM 41.6628 -88.3789 51° Northeast 294 338 8,900 -1,500 Descending Chicago Center
05:09PM 41.7361 -88.3606 56° Northeast 276 318 7,400 -1,020 Descending Chicago Center
05:11PM 41.7985 -88.1029 56° Northeast  Level FlightAware Approximate
05:11PM 41.8081 -88.3478 North 263 303 6,800  Level Chicago Center
05:12PM 41.8911 -88.3303 North 256 295 4,900 -1,380 Descending Chicago Center
05:13PM 41.9317 -88.2519 55° Northeast 262 302 4,000 -480 Descending Chicago Center
05:14PM 41.9633 -88.1747 61° Northeast 251 289 4,000  Level Chicago Center